Terminal Aerodrome Forecast
Issued by NWS

Home | Current Version | Previous Version | Text Only | Print | Product List | Glossary On
Versions: 1 2 3 4 5 6 7 8 9 10 11 12
000
FTUS44 KTSA 260500
TAFMLC
TAF
KMLC 260539Z 2606/2706 18010KT P6SM BKN200
     FM261100 17011KT P6SM BKN015
     FM261800 17012G18KT 6SM -RA OVC015
     FM270100 17007KT 6SM -RA OVC007=

USA.gov is the U.S. government's official web portal to all federal, state and local government web resources and services.